Time;durP1;ratioP1;P1;durP2;ratioP2;P2;SDS_P1;SDS_P2;PMS_P1;PMS_P2;Temp;Humidity;BMP_temperature;BMP_pressure;BME280_temperature;BME280_humidity;BME280_pressure;Samples;Min_cycle;Max_cycle;Signal;HPM_P1;HPM_P2
2022/09/09 00:00:47;;;;;;;1.35;0.40;;;;;;;24.08;49.56;100702.53;5043642;28;20026;-43
2022/09/09 00:03:17;;;;;;;0.60;0.30;;;;;;;24.08;49.51;100699.81;5043407;28;20100;-42
2022/09/09 00:05:59;;;;;;;0.40;0.30;;;;;;;24.08;49.34;100701.69;5026299;28;20029;-46
2022/09/09 00:08:33;;;;;;;0.50;0.30;;;;;;;24.06;49.45;100701.91;5028621;28;20024;-45
2022/09/09 00:11:01;;;;;;;0.57;0.38;;;;;;;24.05;49.61;100696.72;5054380;28;20033;-46
2022/09/09 00:13:41;;;;;;;0.35;0.30;;;;;;;24.04;49.44;100703.16;5039850;28;20027;-44
2022/09/09 00:16:19;;;;;;;0.45;0.30;;;;;;;24.01;49.49;100695.44;5043773;28;20032;-43
2022/09/09 00:19:15;;;;;;;1.00;0.30;;;;;;;24.04;49.53;100697.72;5046804;28;20035;-45
2022/09/09 00:21:52;;;;;;;0.50;0.40;;;;;;;24.03;49.60;100698.78;5037252;28;20089;-43
2022/09/09 00:24:26;;;;;;;0.93;0.40;;;;;;;24.01;49.53;100695.44;5041772;28;20128;-45
2022/09/09 00:27:02;;;;;;;0.40;0.30;;;;;;;24.01;49.38;100704.44;5011991;28;20037;-42
2022/09/09 00:29:41;;;;;;;0.77;0.32;;;;;;;24.01;49.67;100699.00;5018484;28;20049;-42
2022/09/09 00:32:13;;;;;;;0.98;0.40;;;;;;;24.00;49.42;100702.75;5019412;28;20017;-44
2022/09/09 00:34:47;;;;;;;0.60;0.30;;;;;;;24.00;49.38;100697.34;5031757;28;20094;-45
2022/09/09 00:37:12;;;;;;;0.40;0.35;;;;;;;23.98;49.52;100693.97;5040130;28;20517;-44
2022/09/09 00:39:44;;;;;;;0.55;0.30;;;;;;;23.99;49.58;100686.66;5026100;28;20508;-42
2022/09/09 00:42:13;;;;;;;0.30;0.30;;;;;;;23.98;49.45;100690.44;5042985;28;20026;-44
2022/09/09 00:44:51;;;;;;;0.35;0.22;;;;;;;23.98;49.49;100688.53;5038356;28;20702;-43
2022/09/09 00:47:19;;;;;;;0.93;0.27;;;;;;;23.97;49.48;100683.31;5043015;28;20462;-43
2022/09/09 00:50:10;;;;;;;0.30;0.30;;;;;;;23.97;49.34;100676.00;5011858;28;20049;-43
2022/09/09 00:52:46;;;;;;;0.30;0.28;;;;;;;23.96;49.58;100679.78;5022989;28;20526;-43
2022/09/09 00:55:21;;;;;;;0.35;0.30;;;;;;;23.94;49.55;100674.53;5033126;28;20168;-47
2022/09/09 00:57:52;;;;;;;1.10;0.47;;;;;;;23.94;49.46;100671.81;5011490;28;20059;-43
2022/09/09 01:00:25;;;;;;;0.60;0.20;;;;;;;23.94;49.48;100679.13;5043335;28;20040;-43
2022/09/09 01:03:03;;;;;;;1.05;0.30;;;;;;;23.95;49.51;100672.66;5025114;28;20033;-44
2022/09/09 01:05:54;;;;;;;0.40;0.40;;;;;;;23.92;49.50;100663.06;5029478;28;20025;-43
2022/09/09 01:08:57;;;;;;;0.55;0.30;;;;;;;23.92;49.46;100659.50;5028155;28;20021;-43
2022/09/09 01:11:25;;;;;;;0.75;0.30;;;;;;;23.90;49.47;100656.16;5035707;28;20037;-42
2022/09/09 01:14:00;;;;;;;0.57;0.20;;;;;;;23.90;49.47;100656.16;5043996;28;20099;-44
2022/09/09 01:16:26;;;;;;;1.33;0.47;;;;;;;23.88;49.52;100664.53;5017319;28;20025;-45
2022/09/09 01:18:53;;;;;;;0.50;0.30;;;;;;;23.88;49.31;100661.81;5013322;28;20143;-44
2022/09/09 01:21:38;;;;;;;0.82;0.30;;;;;;;23.85;49.35;100654.06;5020324;28;20033;-43
2022/09/09 01:24:22;;;;;;;0.20;0.20;;;;;;;23.87;49.31;100657.44;5015172;28;20104;-45
2022/09/09 01:26:50;;;;;;;0.50;0.30;;;;;;;23.87;49.47;100665.56;5046599;28;20033;-42
2022/09/09 01:29:17;;;;;;;0.63;0.33;;;;;;;23.86;49.42;100657.63;5035295;28;20055;-42
2022/09/09 01:31:56;;;;;;;0.68;0.25;;;;;;;23.86;49.43;100658.44;5066356;28;20024;-44
2022/09/09 01:34:24;;;;;;;0.32;0.30;;;;;;;23.84;49.35;100660.53;5022221;28;20022;-42
2022/09/09 01:37:00;;;;;;;0.30;0.30;;;;;;;23.85;49.47;100662.22;5026614;28;20077;-43
2022/09/09 01:39:25;;;;;;;1.00;0.30;;;;;;;23.84;49.40;100668.69;5048391;28;20076;-45
2022/09/09 01:41:51;;;;;;;0.25;0.20;;;;;;;23.83;49.43;100664.31;5046395;28;20021;-46
2022/09/09 01:44:18;;;;;;;0.20;0.20;;;;;;;23.81;49.31;100662.84;5028425;28;20103;-43
2022/09/09 01:46:43;;;;;;;0.20;0.20;;;;;;;23.83;49.31;100660.72;5036862;28;20029;-44
2022/09/09 01:49:08;;;;;;;0.43;0.30;;;;;;;23.83;49.55;100658.03;5040020;28;20056;-43
2022/09/09 01:51:35;;;;;;;0.28;0.20;;;;;;;23.82;49.48;100659.91;5016332;28;20025;-44
2022/09/09 01:54:01;;;;;;;0.40;0.30;;;;;;;23.82;49.49;100659.91;5028202;28;20033;-45
2022/09/09 01:56:51;;;;;;;0.30;0.30;;;;;;;23.82;49.48;100668.03;5014774;28;20017;-43
2022/09/09 01:59:19;;;;;;;0.43;0.25;;;;;;;23.80;49.60;100675.56;5020517;28;20013;-42
2022/09/09 02:01:48;;;;;;;0.73;0.32;;;;;;;23.79;49.52;100671.19;5022391;28;20033;-42
2022/09/09 02:04:36;;;;;;;1.35;0.30;;;;;;;23.80;49.23;100672.88;5021544;28;20026;-43
2022/09/09 02:07:01;;;;;;;0.60;0.20;;;;;;;23.78;49.32;100668.66;5015418;28;20036;-42
2022/09/09 02:09:29;;;;;;;0.30;0.20;;;;;;;23.78;49.41;100672.22;5044661;28;20121;-42
2022/09/09 02:12:24;;;;;;;0.20;0.20;;;;;;;23.77;49.42;100667.84;5032803;28;20041;-46
2022/09/09 02:14:59;;;;;;;0.80;0.35;;;;;;;23.73;49.48;100660.31;4999120;28;20037;-44
2022/09/09 02:17:31;;;;;;;0.57;0.30;;;;;;;23.76;49.49;100663.47;5018054;28;20094;-45
2022/09/09 02:20:06;;;;;;;0.20;0.20;;;;;;;23.75;49.37;100663.69;5017021;28;20028;-45
2022/09/09 02:22:34;;;;;;;0.30;0.30;;;;;;;23.74;49.57;100667.41;5027601;28;20081;-42
2022/09/09 02:25:00;;;;;;;0.20;0.20;;;;;;;23.73;49.29;100661.16;5045328;28;20090;-46
2022/09/09 02:27:25;;;;;;;0.73;0.32;;;;;;;23.69;49.38;100654.47;5037742;28;20491;-48
2022/09/09 02:29:52;;;;;;;0.65;0.30;;;;;;;23.73;49.38;100669.28;5039848;28;20037;-43
2022/09/09 02:32:22;;;;;;;0.20;0.20;;;;;;;23.72;49.46;100656.78;5008372;28;20022;-43
2022/09/09 02:34:51;;;;;;;0.57;0.32;;;;;;;23.72;49.04;100659.47;5037631;28;20059;-47
2022/09/09 02:37:18;;;;;;;0.50;0.30;;;;;;;23.71;49.29;100657.81;5013521;28;20026;-44
2022/09/09 02:39:44;;;;;;;0.20;0.20;;;;;;;23.71;49.19;100655.09;5034922;28;20046;-42
2022/09/09 02:42:09;;;;;;;0.25;0.25;;;;;;;23.71;49.36;100649.69;5022014;28;20041;-46
2022/09/09 02:44:35;;;;;;;0.30;0.30;;;;;;;23.71;49.50;100648.84;5039427;28;20056;-43
2022/09/09 02:47:10;;;;;;;0.65;0.30;;;;;;;23.69;49.18;100647.16;5044528;28;20057;-43
2022/09/09 02:50:03;;;;;;;0.40;0.20;;;;;;;23.69;49.30;100655.28;5033171;28;20030;-44
2022/09/09 02:52:50;;;;;;;0.63;0.40;;;;;;;23.68;49.27;100650.09;5040926;28;20072;-44
2022/09/09 02:55:46;;;;;;;0.30;0.20;;;;;;;23.66;49.09;100644.88;5038258;28;20474;-43
2022/09/09 02:58:16;;;;;;;0.30;0.30;;;;;;;23.61;49.37;100650.03;5025433;28;20033;-43
2022/09/09 03:00:43;;;;;;;0.98;0.50;;;;;;;23.66;49.19;100654.88;5023054;28;20051;-43
2022/09/09 03:03:09;;;;;;;0.70;0.55;;;;;;;23.63;49.26;100661.53;5044858;28;20022;-45
2022/09/09 03:05:34;;;;;;;0.50;0.28;;;;;;;23.62;49.09;100668.00;5044953;28;20083;-43
2022/09/09 03:07:59;;;;;;;1.02;0.38;;;;;;;23.63;49.27;100657.97;5044352;28;20121;-44
2022/09/09 03:10:25;;;;;;;0.32;0.30;;;;;;;23.62;49.17;100662.56;5045129;28;20029;-42
2022/09/09 03:12:50;;;;;;;0.77;0.30;;;;;;;23.61;49.15;100662.75;5044860;28;20048;-43
2022/09/09 03:15:16;;;;;;;0.70;0.30;;;;;;;23.60;49.12;100664.66;5045169;28;20108;-45
2022/09/09 03:17:41;;;;;;;0.45;0.30;;;;;;;23.59;49.05;100662.97;5044717;28;20017;-42
2022/09/09 03:20:08;;;;;;;0.57;0.40;;;;;;;23.60;49.21;100658.38;5043161;28;20407;-42
2022/09/09 03:22:33;;;;;;;0.40;0.20;;;;;;;23.58;49.04;100653.19;5044466;28;20081;-45
2022/09/09 03:24:58;;;;;;;0.68;0.30;;;;;;;23.58;48.82;100652.34;5030782;28;20032;-46
2022/09/09 03:27:24;;;;;;;0.55;0.40;;;;;;;23.58;49.07;100652.34;5034363;28;20026;-44
2022/09/09 03:29:50;;;;;;;0.57;0.30;;;;;;;23.55;49.21;100644.59;5038779;28;20474;-49
2022/09/09 03:32:17;;;;;;;0.30;0.20;;;;;;;23.56;49.08;100644.38;5032745;28;20021;-49
2022/09/09 03:34:42;;;;;;;1.23;0.50;;;;;;;23.51;49.36;100644.16;5029932;28;20061;-47
2022/09/09 03:37:07;;;;;;;0.50;0.38;;;;;;;23.55;49.01;100656.28;5043008;28;20029;-46
2022/09/09 03:39:33;;;;;;;0.55;0.45;;;;;;;23.50;48.85;100655.25;5044453;28;20042;-48
2022/09/09 03:41:58;;;;;;;0.30;0.28;;;;;;;23.54;49.16;100659.22;5030327;28;20063;-41
2022/09/09 03:44:23;;;;;;;1.25;0.55;;;;;;;23.53;48.90;100662.94;5026256;28;20064;-42
2022/09/09 03:46:48;;;;;;;0.30;0.20;;;;;;;23.52;49.28;100658.56;5042329;28;20021;-45
2022/09/09 03:49:14;;;;;;;1.20;0.30;;;;;;;23.51;49.16;100662.34;5036003;28;20033;-43
2022/09/09 03:51:40;;;;;;;0.30;0.30;;;;;;;23.51;49.05;100657.75;5043291;28;20033;-42
2022/09/09 03:54:08;;;;;;;0.60;0.45;;;;;;;23.50;49.10;100657.97;5042826;28;20076;-42
2022/09/09 03:56:33;;;;;;;0.40;0.30;;;;;;;23.50;49.08;100656.06;5044001;28;20036;-43
2022/09/09 03:58:58;;;;;;;0.60;0.38;;;;;;;23.50;49.21;100655.25;5043478;28;20014;-43
2022/09/09 04:01:24;;;;;;;1.88;0.30;;;;;;;23.49;48.97;100653.53;5042965;28;20055;-42
2022/09/09 04:03:50;;;;;;;0.90;0.40;;;;;;;23.48;49.12;100660.03;5042622;28;20026;-43
2022/09/09 04:06:16;;;;;;;0.20;0.20;;;;;;;23.47;49.00;100661.91;5043301;28;20077;-45
2022/09/09 04:08:41;;;;;;;0.52;0.25;;;;;;;23.47;49.18;100658.34;5043675;28;20055;-44
2022/09/09 04:11:07;;;;;;;0.30;0.28;;;;;;;23.46;48.99;100654.81;5042932;28;20508;-42
2022/09/09 04:13:38;;;;;;;0.50;0.43;;;;;;;23.42;49.03;100650.84;5042542;28;20037;-43
2022/09/09 04:16:04;;;;;;;2.13;0.22;;;;;;;23.45;48.89;100662.13;5043249;28;20013;-41
2022/09/09 04:18:29;;;;;;;0.52;0.20;;;;;;;23.44;48.99;100663.13;5042747;28;20105;-43
2022/09/09 04:20:57;;;;;;;0.40;0.40;;;;;;;23.41;48.89;100651.88;5043439;28;20029;-44
2022/09/09 04:23:23;;;;;;;0.60;0.20;;;;;;;23.44;49.11;100660.41;5042579;28;20140;-42
2022/09/09 04:25:53;;;;;;;0.80;0.35;;;;;;;23.45;49.09;100650.44;5043306;28;20025;-43
2022/09/09 04:28:20;;;;;;;1.42;0.60;;;;;;;23.42;49.04;100653.53;5043001;28;20024;-43
2022/09/09 04:30:45;;;;;;;0.30;0.20;;;;;;;23.44;49.18;100649.56;5042658;28;20882;-42
2022/09/09 04:33:11;;;;;;;0.30;0.20;;;;;;;23.43;49.03;100642.47;5043234;28;20032;-43
2022/09/09 04:35:37;;;;;;;0.90;0.30;;;;;;;23.38;49.24;100634.13;5042873;28;20025;-43
2022/09/09 04:38:03;;;;;;;0.40;0.30;;;;;;;23.39;49.03;100638.50;5042422;28;20076;-42
2022/09/09 04:40:29;;;;;;;0.50;0.20;;;;;;;23.43;49.14;100638.94;5042836;28;20037;-45
2022/09/09 04:42:57;;;;;;;0.43;0.20;;;;;;;23.41;49.05;100641.88;5042234;28;20032;-44
2022/09/09 04:45:23;;;;;;;0.30;0.30;;;;;;;23.42;49.05;100648.13;5042270;28;20048;-45
2022/09/09 04:47:48;;;;;;;0.40;0.20;;;;;;;23.40;49.10;100642.88;5042447;28;20290;-46
2022/09/09 04:50:14;;;;;;;0.35;0.30;;;;;;;23.41;49.08;100649.16;5042537;28;20061;-42
2022/09/09 04:52:40;;;;;;;0.20;0.20;;;;;;;23.37;49.25;100635.16;5042575;28;20025;-43
2022/09/09 04:55:06;;;;;;;0.22;0.20;;;;;;;23.40;48.97;100645.59;5042746;28;20025;-45
2022/09/09 04:57:32;;;;;;;0.30;0.25;;;;;;;23.38;49.32;100636.00;5024845;28;20037;-45
2022/09/09 04:59:59;;;;;;;0.20;0.20;;;;;;;23.39;49.32;100643.94;5042652;28;20060;-44
2022/09/09 05:02:25;;;;;;;1.60;0.30;;;;;;;23.36;49.07;100636.22;5042296;28;20022;-43
2022/09/09 05:04:51;;;;;;;0.57;0.20;;;;;;;23.38;49.22;100641.44;5041152;28;20024;-41
2022/09/09 05:07:16;;;;;;;0.50;0.30;;;;;;;23.38;49.10;100644.16;5039117;28;20469;-43
2022/09/09 05:09:41;;;;;;;0.38;0.20;;;;;;;23.37;49.23;100642.47;5042635;28;20032;-42
2022/09/09 05:12:06;;;;;;;0.60;0.30;;;;;;;23.34;49.24;100638.28;5042187;28;20028;-45
2022/09/09 05:14:32;;;;;;;0.47;0.40;;;;;;;23.35;49.12;100639.94;5041768;28;20127;-44
2022/09/09 05:16:57;;;;;;;0.77;0.40;;;;;;;23.33;49.07;100642.03;5042544;28;20031;-44
2022/09/09 05:19:23;;;;;;;0.82;0.68;;;;;;;23.33;49.16;100643.94;5042107;28;20551;-43
2022/09/09 05:21:48;;;;;;;0.47;0.30;;;;;;;23.31;49.13;100643.28;5041891;28;20022;-44
2022/09/09 05:24:13;;;;;;;1.30;0.47;;;;;;;23.30;49.41;100642.44;5042268;28;20088;-42
2022/09/09 05:26:39;;;;;;;0.77;0.40;;;;;;;23.29;49.21;100635.34;5042647;28;20029;-43
2022/09/09 05:29:06;;;;;;;0.95;0.38;;;;;;;23.29;48.97;100638.06;5042333;28;20014;-42
2022/09/09 05:31:31;;;;;;;0.30;0.30;;;;;;;23.25;49.04;100633.25;5042009;28;20026;-42
2022/09/09 05:33:56;;;;;;;0.40;0.30;;;;;;;23.26;49.22;100630.34;5041610;28;20089;-45
2022/09/09 05:36:23;;;;;;;1.60;1.00;;;;;;;23.26;49.28;100632.22;5041695;28;20045;-40
2022/09/09 05:38:49;;;;;;;0.80;0.38;;;;;;;23.20;49.08;100623.03;5038891;28;20025;-47
2022/09/09 05:41:15;;;;;;;0.60;0.50;;;;;;;23.20;49.21;100621.16;5047547;28;20049;-50
2022/09/09 05:43:44;;;;;;;0.60;0.47;;;;;;;23.22;49.21;100623.63;5042413;28;20084;-50
2022/09/09 05:46:17;;;;;;;0.68;0.43;;;;;;;23.23;48.82;100632.59;5034073;28;20037;-50
2022/09/09 05:48:46;;;;;;;0.82;0.50;;;;;;;23.21;49.23;100632.81;5029950;28;20020;-49
2022/09/09 05:51:21;;;;;;;;;;;;;;;23.18;49.12;100627.81;5039409;28;20026;-46
2022/09/09 05:53:46;;;;;;;0.60;0.40;;;;;;;23.18;49.17;100633.22;5040405;28;19980;-46
2022/09/09 05:56:19;;;;;;;1.38;0.55;;;;;;;23.19;49.13;100643.03;5040329;28;20079;-48
2022/09/09 05:58:49;;;;;;;1.55;0.60;;;;;;;23.18;49.18;100642.19;5038064;28;20385;-45
2022/09/09 06:01:17;;;;;;;0.63;0.40;;;;;;;23.19;49.46;100640.31;5038199;28;20094;-46
2022/09/09 06:03:44;;;;;;;0.70;0.43;;;;;;;23.18;49.33;100639.47;5028927;28;20105;-49
2022/09/09 06:06:11;;;;;;;1.25;0.55;;;;;;;23.19;49.21;100645.75;5031936;28;20033;-48
2022/09/09 06:08:38;;;;;;;1.17;0.50;;;;;;;23.19;49.38;100645.75;5042158;28;20022;-46
2022/09/09 06:11:04;;;;;;;2.03;0.70;;;;;;;23.19;49.33;100646.59;5039596;28;20037;-48
2022/09/09 06:13:30;;;;;;;0.57;0.43;;;;;;;23.19;49.03;100635.75;5045830;28;20022;-47
2022/09/09 06:15:56;;;;;;;0.60;0.43;;;;;;;23.19;49.05;100637.59;5032081;28;20029;-47
2022/09/09 06:18:21;;;;;;;1.20;0.52;;;;;;;23.20;48.98;100637.41;5039732;28;20025;-46
2022/09/09 06:21:07;;;;;;;0.60;0.40;;;;;;;23.24;48.88;100642.44;5029105;28;20021;-49
2022/09/09 06:23:34;;;;;;;0.88;0.55;;;;;;;23.23;49.31;100643.47;5034914;28;20103;-47
2022/09/09 06:26:21;;;;;;;1.13;0.60;;;;;;;23.25;49.07;100641.41;5038621;28;20099;-50
2022/09/09 06:28:49;;;;;;;0.85;0.40;;;;;;;23.25;49.20;100635.97;5037286;28;20274;-48
2022/09/09 06:31:22;;;;;;;0.40;0.30;;;;;;;23.25;49.05;100641.41;5044979;28;20100;-47
2022/09/09 06:33:49;;;;;;;0.93;0.40;;;;;;;23.25;49.11;100636.81;5025576;28;20024;-47
2022/09/09 06:36:20;;;;;;;0.77;0.50;;;;;;;23.27;49.04;100633.88;5044847;28;20028;-52
2022/09/09 06:38:46;;;;;;;1.02;0.60;;;;;;;23.26;49.07;100635.75;5044969;28;20029;-49
2022/09/09 06:41:13;;;;;;;0.57;0.40;;;;;;;23.26;49.24;100634.91;5044746;28;20047;-51
2022/09/09 06:43:39;;;;;;;1.27;0.50;;;;;;;23.26;49.25;100637.63;5043671;28;20152;-50
2022/09/09 06:46:08;;;;;;;1.10;0.40;;;;;;;23.27;49.04;100636.59;5043489;28;20079;-47
2022/09/09 06:48:33;;;;;;;0.88;0.47;;;;;;;23.25;49.25;100628.66;5044354;28;20091;-50
2022/09/09 06:51:11;;;;;;;0.68;0.30;;;;;;;23.30;49.17;100641.63;5045397;28;20033;-50
2022/09/09 06:53:36;;;;;;;1.10;0.43;;;;;;;23.27;49.00;100648.28;5044816;28;20037;-50
2022/09/09 06:56:02;;;;;;;0.77;0.57;;;;;;;23.29;49.17;100643.50;5044895;28;20052;-50
2022/09/09 06:58:28;;;;;;;0.60;0.40;;;;;;;23.28;48.90;100639.13;5046488;28;20030;-46
2022/09/09 07:01:04;;;;;;;1.90;0.85;;;;;;;23.32;49.03;100644.94;5043398;28;20184;-53
2022/09/09 07:03:29;;;;;;;1.10;0.50;;;;;;;23.32;49.01;100640.38;5056309;28;20024;-51
2022/09/09 07:05:56;;;;;;;1.33;0.60;;;;;;;23.32;49.01;100629.53;5045274;28;20029;-48
2022/09/09 07:08:21;;;;;;;1.63;0.55;;;;;;;23.33;48.76;100639.34;5043868;28;20021;-47
2022/09/09 07:10:47;;;;;;;0.75;0.43;;;;;;;23.34;48.88;100637.44;5045273;28;20110;-48
2022/09/09 07:13:13;;;;;;;0.77;0.40;;;;;;;23.31;48.95;100646.00;5046363;28;20080;-47
2022/09/09 07:15:38;;;;;;;3.60;0.52;;;;;;;23.35;48.82;100642.66;5044390;28;20053;-47
2022/09/09 07:18:04;;;;;;;1.20;0.60;;;;;;;23.37;48.94;100648.75;5044434;28;20052;-47
2022/09/09 07:20:29;;;;;;;0.95;0.75;;;;;;;23.39;48.78;100645.81;5041066;28;20596;-49
2022/09/09 07:22:55;;;;;;;1.42;0.52;;;;;;;23.40;48.92;100636.63;5025802;28;20033;-53
2022/09/09 07:25:21;;;;;;;1.05;0.50;;;;;;;23.40;49.02;100648.31;5044327;28;20025;-48
2022/09/09 07:27:47;;;;;;;0.60;0.40;;;;;;;23.41;48.88;100647.28;5044060;28;20021;-48
2022/09/09 07:30:12;;;;;;;1.05;0.55;;;;;;;23.41;48.83;100650.00;5044179;28;20040;-50
2022/09/09 07:32:37;;;;;;;0.98;0.50;;;;;;;23.41;48.72;100644.56;5043874;28;20025;-47
2022/09/09 07:35:03;;;;;;;0.90;0.50;;;;;;;23.42;48.76;100648.13;5043554;28;20485;-48
2022/09/09 07:37:28;;;;;;;0.60;0.45;;;;;;;23.42;48.65;100651.66;5043174;28;20041;-47
2022/09/09 07:39:53;;;;;;;1.33;0.40;;;;;;;23.43;49.01;100650.63;5043931;28;20044;-51
2022/09/09 07:42:19;;;;;;;0.90;0.35;;;;;;;23.44;48.58;100652.28;5043807;28;20022;-51
2022/09/09 07:44:44;;;;;;;1.92;0.70;;;;;;;23.46;48.76;100654.81;5041360;28;20036;-48
2022/09/09 07:47:10;;;;;;;1.50;0.50;;;;;;;23.43;48.87;100642.47;5043784;28;20017;-46
2022/09/09 07:49:35;;;;;;;1.10;0.43;;;;;;;23.47;48.70;100656.47;5043222;28;20088;-49
2022/09/09 07:52:00;;;;;;;1.70;0.60;;;;;;;23.48;48.56;100647.28;5043220;28;20500;-48
2022/09/09 07:54:25;;;;;;;1.20;0.60;;;;;;;23.49;48.54;100648.13;5040679;28;20021;-48
2022/09/09 07:56:52;;;;;;;1.10;0.50;;;;;;;23.50;48.73;100644.38;5043668;28;20025;-47
2022/09/09 07:59:18;;;;;;;0.93;0.60;;;;;;;23.50;48.78;100641.69;5043768;28;20022;-46
2022/09/09 08:01:45;;;;;;;0.68;0.32;;;;;;;23.51;48.41;100641.47;5014565;28;20030;-51
2022/09/09 08:04:22;;;;;;;1.15;0.40;;;;;;;23.54;48.65;100643.78;5035880;28;20021;-47
2022/09/09 08:06:53;;;;;;;1.30;0.63;;;;;;;23.57;48.81;100640.63;5039478;28;20445;-52
2022/09/09 08:09:19;;;;;;;1.30;0.50;;;;;;;23.58;48.56;100644.19;5042622;28;20010;-41
2022/09/09 08:11:44;;;;;;;0.73;0.30;;;;;;;23.60;48.87;100644.81;5032647;28;20041;-43
2022/09/09 08:14:10;;;;;;;0.98;0.60;;;;;;;23.60;48.65;100648.34;5047611;28;20036;-46
2022/09/09 08:16:42;;;;;;;0.95;0.40;;;;;;;23.62;48.62;100650.88;5047923;28;20051;-43
2022/09/09 08:19:07;;;;;;;0.63;0.40;;;;;;;23.62;48.58;100648.19;5041657;28;20017;-41
2022/09/09 08:21:36;;;;;;;1.67;0.60;;;;;;;23.63;48.66;100650.66;5045822;28;20029;-43
2022/09/09 08:24:02;;;;;;;0.75;0.50;;;;;;;23.59;48.75;100654.00;5038077;28;20032;-43
2022/09/09 08:26:29;;;;;;;0.77;0.50;;;;;;;23.64;48.57;100654.22;5045341;28;20513;-43
2022/09/09 08:28:56;;;;;;;0.43;0.40;;;;;;;23.53;48.73;100643.94;5046021;28;20381;-46
2022/09/09 08:31:28;;;;;;;0.93;0.50;;;;;;;23.64;48.61;100655.03;5048523;28;20053;-41
2022/09/09 08:33:53;;;;;;;2.15;0.50;;;;;;;23.64;48.21;100659.66;5049311;28;20060;-46
2022/09/09 08:36:21;;;;;;;1.15;0.60;;;;;;;23.64;48.63;100663.19;5042659;28;20032;-45
2022/09/09 08:38:48;;;;;;;0.90;0.45;;;;;;;23.63;48.55;100660.69;5042921;28;20030;-48
2022/09/09 08:41:35;;;;;;;0.60;0.47;;;;;;;23.63;48.46;100671.56;5040125;28;20010;-47
2022/09/09 08:44:30;;;;;;;1.38;0.40;;;;;;;23.62;48.59;100670.72;5038535;28;20180;-48
2022/09/09 08:47:18;;;;;;;2.35;0.90;;;;;;;23.61;48.60;100670.91;5040566;28;20474;-46
2022/09/09 08:49:49;;;;;;;1.08;0.50;;;;;;;23.62;48.81;100669.88;5042298;28;20044;-46
2022/09/09 08:52:22;;;;;;;1.77;0.50;;;;;;;23.59;48.69;100662.97;5042455;28;20029;-49
2022/09/09 08:54:48;;;;;;;0.68;0.50;;;;;;;23.61;48.66;100663.59;5042758;28;20159;-45
2022/09/09 08:57:19;;;;;;;1.20;0.40;;;;;;;23.63;48.67;100666.13;5040843;28;20021;-47
2022/09/09 08:59:44;;;;;;;0.77;0.50;;;;;;;23.64;48.72;100659.66;5041360;28;20055;-49
2022/09/09 09:02:23;;;;;;;2.00;0.50;;;;;;;23.65;48.61;100666.78;5026535;28;20026;-46
2022/09/09 09:05:05;;;;;;;0.98;0.50;;;;;;;23.65;48.53;100672.19;5021134;28;20029;-46
2022/09/09 09:07:41;;;;;;;0.77;0.38;;;;;;;23.58;48.68;100666.75;5022489;28;20025;-44
2022/09/09 09:10:25;;;;;;;1.48;0.30;;;;;;;23.64;48.71;100673.22;5035269;28;20109;-47
2022/09/09 09:12:50;;;;;;;0.98;0.40;;;;;;;23.64;48.66;100684.06;5036795;28;20081;-45
2022/09/09 09:15:26;;;;;;;0.75;0.40;;;;;;;23.65;48.78;100683.88;5031162;28;20041;-44
2022/09/09 09:17:52;;;;;;;1.08;0.60;;;;;;;23.66;48.70;100684.72;5028864;28;20022;-45
2022/09/09 09:20:29;;;;;;;1.60;0.40;;;;;;;23.67;48.62;100686.41;5039124;28;20033;-50
2022/09/09 09:22:56;;;;;;;2.53;0.60;;;;;;;23.64;48.71;100692.22;5030067;28;20052;-47
2022/09/09 09:25:26;;;;;;;2.10;1.15;;;;;;;23.64;48.85;100686.78;5055232;28;20079;-48
2022/09/09 09:27:54;;;;;;;2.08;0.55;;;;;;;23.63;48.86;100698.69;5028949;28;20022;-49
2022/09/09 09:30:26;;;;;;;0.82;0.50;;;;;;;23.62;48.85;100691.59;5042932;28;20026;-49
2022/09/09 09:33:01;;;;;;;0.60;0.40;;;;;;;23.60;48.83;100699.09;5025256;28;20044;-47
2022/09/09 09:35:27;;;;;;;1.08;0.70;;;;;;;23.58;48.83;100685.75;5043194;28;20052;-47
2022/09/09 09:37:52;;;;;;;2.25;1.15;;;;;;;23.59;48.74;100694.72;5046190;28;20053;-45
2022/09/09 09:40:20;;;;;;;0.90;0.43;;;;;;;23.58;48.61;100690.34;5046800;28;20474;-48
2022/09/09 09:43:00;;;;;;;0.60;0.40;;;;;;;23.57;48.70;100689.47;5046766;28;20034;-50
2022/09/09 09:45:34;;;;;;;1.60;0.75;;;;;;;23.58;48.89;100691.16;5045004;28;20022;-48
2022/09/09 09:48:05;;;;;;;0.88;0.32;;;;;;;23.57;48.88;100694.91;5046710;28;20021;-47
2022/09/09 09:50:31;;;;;;;0.85;0.50;;;;;;;23.58;48.76;100691.16;5046480;28;20053;-48
2022/09/09 09:52:59;;;;;;;0.60;0.40;;;;;;;23.58;48.84;100690.34;5028168;28;20113;-47
2022/09/09 09:55:25;;;;;;;1.65;0.30;;;;;;;23.57;48.68;100697.63;5043456;28;20040;-47
2022/09/09 09:57:51;;;;;;;0.90;0.40;;;;;;;23.56;48.89;100690.53;5017843;28;20078;-45
2022/09/09 10:00:20;;;;;;;0.73;0.40;;;;;;;23.56;48.74;100687.81;5028897;28;20053;-48
2022/09/09 10:02:46;;;;;;;1.27;0.40;;;;;;;23.55;48.67;100694.28;5039023;28;20021;-45
2022/09/09 10:05:18;;;;;;;2.13;0.60;;;;;;;23.56;48.58;100695.13;5021414;28;20033;-47
2022/09/09 10:07:47;;;;;;;0.73;0.30;;;;;;;23.55;48.82;100696.16;5023930;28;20482;-47
2022/09/09 10:10:26;;;;;;;1.02;0.60;;;;;;;23.55;48.76;100694.28;5041532;28;20057;-49
2022/09/09 10:13:21;;;;;;;0.32;0.30;;;;;;;23.54;48.88;100691.78;5042814;28;20032;-46
2022/09/09 10:16:15;;;;;;;1.38;0.50;;;;;;;23.55;48.82;100699.72;5033414;28;20081;-48
2022/09/09 10:18:49;;;;;;;0.43;0.30;;;;;;;23.56;48.68;100690.53;5016682;28;20572;-48
2022/09/09 10:21:57;;;;;;;0.90;0.30;;;;;;;23.57;48.77;100691.34;5023516;28;20026;-49
2022/09/09 10:24:54;;;;;;;1.23;0.50;;;;;;;23.56;48.77;100692.41;5021776;28;20053;-48
2022/09/09 10:27:20;;;;;;;0.90;0.32;;;;;;;23.56;48.82;100686.97;5051108;28;20024;-46
2022/09/09 10:29:57;;;;;;;1.33;0.52;;;;;;;23.55;48.94;100690.72;5031684;28;20041;-46
2022/09/09 10:32:50;;;;;;;1.95;0.57;;;;;;;23.55;48.60;100688.84;5036169;28;20566;-52
2022/09/09 10:35:27;;;;;;;1.40;0.30;;;;;;;23.57;48.75;100692.19;5026656;28;20080;-50
2022/09/09 10:38:05;;;;;;;1.75;0.75;;;;;;;23.59;48.79;100686.56;5044919;28;20044;-48
2022/09/09 10:40:39;;;;;;;0.52;0.40;;;;;;;23.60;48.55;100683.66;5032195;28;20033;-47
2022/09/09 10:43:28;;;;;;;1.15;0.40;;;;;;;23.64;48.72;100686.78;5016524;28;20030;-48
2022/09/09 10:46:22;;;;;;;0.65;0.30;;;;;;;23.66;48.41;100676.56;5042300;28;20116;-50
2022/09/09 10:49:14;;;;;;;0.60;0.40;;;;;;;23.67;48.33;100676.38;5026735;28;20018;-45
2022/09/09 10:51:50;;;;;;;0.95;0.40;;;;;;;23.66;48.48;100685.59;5039008;28;20045;-45
2022/09/09 10:54:28;;;;;;;1.10;0.32;;;;;;;23.66;48.65;100684.72;5057868;28;20080;-45
2022/09/09 10:57:03;;;;;;;1.05;0.50;;;;;;;23.60;48.54;100680.94;5027612;28;20036;-49
2022/09/09 10:59:38;;;;;;;0.50;0.30;;;;;;;23.62;48.71;100687.00;5045256;28;20044;-49
2022/09/09 11:02:29;;;;;;;1.00;0.50;;;;;;;23.61;48.57;100684.47;5044766;28;20062;-48
2022/09/09 11:05:23;;;;;;;0.90;0.50;;;;;;;23.59;48.33;100679.25;5044375;28;20552;-47
2022/09/09 11:07:53;;;;;;;1.58;0.50;;;;;;;23.58;48.69;100674.88;5041807;28;20575;-51
2022/09/09 11:10:26;;;;;;;1.23;0.40;;;;;;;23.58;48.57;100674.88;5027576;28;20025;-47
2022/09/09 11:12:56;;;;;;;1.25;0.50;;;;;;;23.57;48.47;100680.50;5027085;28;20053;-46
2022/09/09 11:15:28;;;;;;;0.90;0.35;;;;;;;23.55;48.85;100683.44;5022826;28;20017;-45
2022/09/09 11:17:56;;;;;;;0.60;0.30;;;;;;;23.54;48.64;100680.94;5043108;28;20083;-46
2022/09/09 11:20:25;;;;;;;1.05;0.50;;;;;;;23.53;48.79;100685.50;5018796;28;20160;-49
2022/09/09 11:23:24;;;;;;;0.70;0.40;;;;;;;23.53;48.47;100690.91;5026458;28;20029;-50
2022/09/09 11:25:53;;;;;;;1.25;0.40;;;;;;;23.55;48.60;100685.31;5010109;28;20033;-46
2022/09/09 11:28:36;;;;;;;1.27;0.38;;;;;;;23.56;48.65;100678.84;5030584;28;20017;-49
2022/09/09 11:31:36;;;;;;;1.50;0.38;;;;;;;23.57;48.52;100675.91;5014840;28;20049;-52
2022/09/09 11:34:12;;;;;;;1.55;0.90;;;;;;;23.58;48.66;100680.31;5032941;28;20112;-49
2022/09/09 11:36:49;;;;;;;0.50;0.40;;;;;;;23.58;48.62;100683.03;5041218;28;20053;-47
2022/09/09 11:39:29;;;;;;;1.05;0.40;;;;;;;23.59;48.76;100681.16;5017582;28;20026;-46
2022/09/09 11:42:06;;;;;;;1.90;0.50;;;;;;;23.55;48.50;100664.44;5038388;28;20505;-48